Aeroporto :
LOGIN :

Iscrizione | Disclaimer

   EN    FR    IT 

 










Sommario :    VFR   VFR Marginale   IFR   IFR Intensivo   IFR Molto Intensivo
Visibilità : 
Base nubi : 
>= 8 km
>= 3000ft
5 / 8 km
1000 / 3000 ft
1500m / 5 km
500 / 1000 ft
800 / 1500m
200 / 500 ft
< 800m
< 200 ft
Simboli :   Temporali  Nebbia  Neve Forte  Precipitazioni Forti  Vento > 20 kt
SIGMETs :   Varie  Temporali  Ghiacco  Turbolenza  Onda orograficha  Ceneri Vulcaniche







- Altitudine del aeroporto : 256 ft
- Codice IATA : KUN


EYKA - Kaunas

ULTIMO METAR :
  • 240720Z 26006KT 230V290 9999 OVC011 15/12 Q1011

METARs OBSOLETI :
  • 240650Z 26006KT 240V330 9999 OVC009 14/11 Q1012
  • 240620Z 25006KT 220V280 9999 OVC009 14/11 Q1012
  • 240550Z 26006KT 9999 OVC010 13/11 Q1011
  • 240520Z 27006KT 9999 OVC011 13/11 Q1011
  • 240450Z 27005KT 240V300 9999 OVC009 13/11 Q1011
  • 240420Z 28005KT 240V330 9999 OVC007 13/11 Q1011

TAF TAF EYKA
Valido dal 24 a 06 ore il 25 a 06 ore UTC


240503Z 2406/2506 30008KT 8000 OVC015
TEMPO 2406/2409 OVC010
BECMG 2415/2416 SCT025
Nessun NOTAM noto per questo aeroporto.



MetMap, La meteo Aeronautica in un colpo d'occhio ! - Copyright ORBIFLY Dicembre 2007 - Disclaimer

ORBIFLY MET'MAP TEAM :

Programmazione e sviluppo : Alexandra Zaïnal
Concezione e sviluppo : Baudouin d'Aumeries
Co-Programmazione e sviluppo : Marc-Olivier Méhu
Supporto tecnico e logistico : Manuel Goepfert
Aiuto per la traduzione : Arnaldo La Scala

Contatto : metmap@orbifly.com




FONTI E CREDITI :

   NOAA